createdAt,value
2019-05-25T00:01:51.513Z,59.20
2019-05-25T00:04:25.245Z,60.20
2019-05-25T00:06:59.331Z,60.94
2019-05-25T00:09:33.035Z,61.68
2019-05-25T00:12:06.917Z,62.31
2019-05-25T00:14:40.579Z,60.52
2019-05-25T00:17:14.774Z,53.49
2019-05-25T00:19:48.465Z,54.69
2019-05-25T00:22:22.143Z,56.37
2019-05-25T00:24:55.798Z,57.70
2019-05-25T00:27:29.249Z,58.58
2019-05-25T00:30:02.679Z,59.19
2019-05-25T00:32:37.663Z,60.00
2019-05-25T00:35:11.213Z,61.00
2019-05-25T00:37:44.621Z,61.95
2019-05-25T00:40:18.682Z,62.84
2019-05-25T00:42:54.221Z,60.36
2019-05-25T00:45:27.668Z,53.85
2019-05-25T00:48:01.328Z,55.21
2019-05-25T00:50:34.706Z,56.89
2019-05-25T00:53:08.009Z,58.03
2019-05-25T00:55:41.450Z,59.11
2019-05-25T00:58:15.786Z,59.80
2019-05-25T01:00:49.099Z,60.40
2019-05-25T01:03:23.894Z,61.11
2019-05-25T01:05:57.161Z,61.53
2019-05-25T01:08:30.532Z,62.05
2019-05-25T01:11:03.967Z,62.69
2019-05-25T01:13:37.452Z,60.42
2019-05-25T01:16:10.743Z,53.49
2019-05-25T01:18:44.104Z,54.94
2019-05-25T01:21:17.368Z,56.68
2019-05-25T01:23:51.708Z,57.90
2019-05-25T01:26:25.075Z,58.92
2019-05-25T01:28:59.049Z,59.83
2019-05-25T01:31:33.717Z,60.58
2019-05-25T01:34:07.078Z,61.41
2019-05-25T01:36:41.745Z,62.06
2019-05-25T01:39:16.715Z,62.53
2019-05-25T01:41:51.342Z,60.40
2019-05-25T01:44:25.204Z,54.02
2019-05-25T01:46:59.811Z,55.33
2019-05-25T01:49:33.105Z,56.93
2019-05-25T01:52:06.386Z,58.32
2019-05-25T01:54:39.655Z,59.43
2019-05-25T01:57:13.016Z,60.34
2019-05-25T01:59:46.379Z,60.88
2019-05-25T02:02:19.715Z,61.28
2019-05-25T02:04:53.175Z,62.07
2019-05-25T02:07:26.439Z,62.63
2019-05-25T02:09:59.812Z,60.75
2019-05-25T02:12:33.139Z,50.85
2019-05-25T02:15:08.435Z,48.91
2019-05-25T02:17:42.759Z,51.15
2019-05-25T02:20:17.649Z,53.29
2019-05-25T02:22:51.311Z,54.87
2019-05-25T02:25:24.536Z,56.05
2019-05-25T02:27:57.910Z,57.06
2019-05-25T02:30:31.867Z,58.19
2019-05-25T02:33:05.231Z,59.21
2019-05-25T02:35:38.571Z,59.86
2019-05-25T02:38:11.846Z,60.67
2019-05-25T02:40:45.201Z,61.46
2019-05-25T02:43:18.454Z,62.31
2019-05-25T02:45:51.651Z,60.34
2019-05-25T02:48:26.021Z,53.68
2019-05-25T02:50:59.355Z,55.00
2019-05-25T02:53:33.098Z,56.39
2019-05-25T02:56:06.562Z,57.80
2019-05-25T02:58:39.878Z,58.93
2019-05-25T03:01:13.227Z,59.26
2019-05-25T03:03:47.155Z,60.36
2019-05-25T03:06:22.009Z,61.52
2019-05-25T03:08:57.266Z,62.06
2019-05-25T03:11:33.343Z,60.06
2019-05-25T03:14:07.111Z,54.08
2019-05-25T03:16:40.379Z,55.32
2019-05-25T03:19:13.543Z,56.59
2019-05-25T03:21:49.933Z,58.10
2019-05-25T03:24:23.080Z,59.31
2019-05-25T03:26:56.445Z,60.32
2019-05-25T03:29:29.683Z,61.01
2019-05-25T03:32:03.041Z,61.91
2019-05-25T03:34:37.374Z,62.39
2019-05-25T03:37:10.773Z,60.79
2019-05-25T03:39:44.126Z,50.59
2019-05-25T03:42:17.459Z,48.06
2019-05-25T03:44:50.793Z,50.75
2019-05-25T03:47:24.129Z,53.01
2019-05-25T03:49:57.513Z,54.71
2019-05-25T03:52:30.863Z,56.19
2019-05-25T03:55:04.244Z,57.28
2019-05-25T03:57:37.493Z,58.22
2019-05-25T04:00:11.027Z,58.87
2019-05-25T04:02:45.018Z,59.99
2019-05-25T04:05:18.208Z,60.66
2019-05-25T04:07:51.465Z,61.54
2019-05-25T04:10:24.993Z,62.36
2019-05-25T04:12:58.390Z,60.63
2019-05-25T04:15:31.735Z,51.10
2019-05-25T04:18:05.214Z,48.41
2019-05-25T04:20:39.472Z,50.56
2019-05-25T04:23:12.819Z,52.52
2019-05-25T04:25:46.409Z,53.74
2019-05-25T04:28:20.055Z,55.15
2019-05-25T04:30:53.391Z,56.44
2019-05-25T04:33:26.651Z,57.19
2019-05-25T04:36:00.059Z,58.08
2019-05-25T04:38:33.538Z,58.84
2019-05-25T04:41:06.873Z,59.58
2019-05-25T04:43:41.332Z,60.38
2019-05-25T04:46:14.636Z,61.05
2019-05-25T04:48:48.820Z,61.73
2019-05-25T04:51:22.154Z,62.33
2019-05-25T04:53:55.420Z,60.07
2019-05-25T04:56:39.122Z,53.80
2019-05-25T04:59:03.636Z,55.37
2019-05-25T05:01:37.181Z,56.60
2019-05-25T05:04:10.720Z,57.94
2019-05-25T05:06:44.007Z,59.04
2019-05-25T05:09:17.263Z,59.77
2019-05-25T05:11:50.569Z,60.49
2019-05-25T05:14:23.830Z,61.20
2019-05-25T05:16:57.107Z,61.47
2019-05-25T05:19:30.381Z,61.48
2019-05-25T05:22:05.777Z,61.52
2019-05-25T05:24:38.504Z,62.37
2019-05-25T05:27:11.744Z,59.75
2019-05-25T05:29:45.044Z,52.57
2019-05-25T05:32:27.085Z,54.61
2019-05-25T05:34:53.282Z,56.38
2019-05-25T05:37:28.060Z,57.52
2019-05-25T05:40:02.239Z,58.14
2019-05-25T05:42:40.089Z,58.63
2019-05-25T05:45:14.487Z,59.00
2019-05-25T05:47:49.703Z,59.66
2019-05-25T05:50:23.356Z,60.95
2019-05-25T05:52:57.183Z,60.74
2019-05-25T05:55:33.951Z,60.60
2019-05-25T05:58:07.296Z,61.15
2019-05-25T06:00:40.627Z,60.71
2019-05-25T06:03:13.864Z,61.74
2019-05-25T06:05:47.156Z,61.22
2019-05-25T06:08:20.454Z,61.51
2019-05-25T06:10:53.790Z,61.17
2019-05-25T06:13:27.011Z,61.69
2019-05-25T06:16:00.674Z,61.33
2019-05-25T06:18:33.932Z,61.42
2019-05-25T06:21:07.400Z,61.35
2019-05-25T06:23:40.618Z,60.87
2019-05-25T06:26:13.897Z,61.37
2019-05-25T06:28:47.126Z,60.52
2019-05-25T06:31:20.447Z,61.12
2019-05-25T06:33:53.784Z,60.90
2019-05-25T06:36:27.108Z,61.65
2019-05-25T06:39:00.430Z,61.42
2019-05-25T06:41:33.788Z,61.56
2019-05-25T06:44:07.306Z,61.23
2019-05-25T06:46:40.473Z,61.61
2019-05-25T06:49:13.693Z,61.46
2019-05-25T06:51:46.969Z,61.39
2019-05-25T06:54:20.203Z,61.72
2019-05-25T06:56:53.378Z,61.53
2019-05-25T06:59:26.613Z,61.27
2019-05-25T07:01:59.871Z,61.22
2019-05-25T07:04:33.092Z,61.59
2019-05-25T07:07:06.466Z,61.61
2019-05-25T07:09:39.778Z,61.46
2019-05-25T07:12:13.052Z,60.86
2019-05-25T07:14:46.311Z,60.52
2019-05-25T07:17:20.050Z,60.98
2019-05-25T07:19:53.290Z,60.54
2019-05-25T07:22:26.555Z,60.91
2019-05-25T07:25:00.810Z,60.56
2019-05-25T07:27:34.142Z,60.41
2019-05-25T07:30:08.030Z,60.59
2019-05-25T07:32:41.589Z,59.48
2019-05-25T07:35:15.145Z,58.55
2019-05-25T07:37:48.352Z,59.04
2019-05-25T07:40:21.878Z,59.71
2019-05-25T07:42:55.133Z,60.36
2019-05-25T07:45:28.438Z,58.99
2019-05-25T07:48:01.915Z,58.14
2019-05-25T07:50:35.554Z,56.78
2019-05-25T07:53:08.886Z,57.64
2019-05-25T07:55:42.265Z,57.44
2019-05-25T07:58:18.390Z,57.98
2019-05-25T08:00:50.704Z,57.72
2019-05-25T08:03:25.003Z,58.23
2019-05-25T08:05:59.275Z,56.52
2019-05-25T08:08:32.822Z,56.03
2019-05-25T08:11:06.084Z,57.05
2019-05-25T08:13:39.430Z,56.31
2019-05-25T08:16:12.658Z,56.08
2019-05-25T08:18:46.011Z,55.90
2019-05-25T08:21:19.328Z,55.28
2019-05-25T08:23:52.616Z,54.93
2019-05-25T08:26:26.003Z,54.72
2019-05-25T08:28:59.360Z,54.93
2019-05-25T08:31:32.699Z,54.61
2019-05-25T08:34:06.087Z,53.80
2019-05-25T08:36:39.407Z,54.08
2019-05-25T08:39:12.726Z,52.29
2019-05-25T08:41:46.089Z,53.81
2019-05-25T08:44:19.362Z,53.07
2019-05-25T08:46:55.367Z,52.51
2019-05-25T08:49:27.677Z,52.80
2019-05-25T08:52:04.063Z,52.63
2019-05-25T08:54:35.961Z,52.02
2019-05-25T08:57:09.207Z,51.96
2019-05-25T08:59:42.533Z,52.81
2019-05-25T09:02:15.865Z,51.33
2019-05-25T09:04:49.142Z,52.73
2019-05-25T09:07:22.720Z,50.60
2019-05-25T09:09:56.099Z,50.63
2019-05-25T09:12:30.460Z,51.82
2019-05-25T09:15:05.906Z,49.77
2019-05-25T09:17:38.852Z,50.98
2019-05-25T09:20:12.918Z,50.16
2019-05-25T09:22:46.180Z,49.98
2019-05-25T09:25:19.651Z,50.55
2019-05-25T09:27:53.158Z,49.88
2019-05-25T09:30:27.743Z,50.01
2019-05-25T09:33:01.342Z,50.11
2019-05-25T09:35:34.682Z,48.64
2019-05-25T09:38:08.070Z,48.87
2019-05-25T09:40:41.422Z,50.90
2019-05-25T09:43:14.874Z,50.11
2019-05-25T09:45:48.341Z,48.98
2019-05-25T09:48:22.766Z,49.48
2019-05-25T09:50:57.193Z,50.17
2019-05-25T09:53:30.628Z,49.75
2019-05-25T09:56:04.077Z,49.64
2019-05-25T09:58:37.573Z,49.80
2019-05-25T10:01:10.890Z,49.85
2019-05-25T10:03:51.759Z,49.47
2019-05-25T10:06:24.982Z,50.08
2019-05-25T10:08:58.838Z,49.57
2019-05-25T10:11:32.330Z,49.93
2019-05-25T10:14:05.825Z,49.25
2019-05-25T10:16:39.360Z,48.87
2019-05-25T10:19:13.197Z,48.81
2019-05-25T10:21:46.815Z,48.48
2019-05-25T10:24:20.914Z,49.38
2019-05-25T10:26:55.489Z,47.51
2019-05-25T10:29:37.374Z,48.06
2019-05-25T10:32:17.007Z,47.17
2019-05-25T10:37:41.122Z,46.54
2019-05-25T10:40:14.539Z,47.71
2019-05-25T10:42:48.445Z,45.77
2019-05-25T10:45:22.894Z,47.43
2019-05-25T10:47:56.232Z,45.49
2019-05-25T10:50:29.403Z,45.75
2019-05-25T10:53:02.747Z,46.63
2019-05-25T10:55:36.013Z,44.73
2019-05-25T10:58:10.302Z,44.67
2019-05-25T11:00:43.692Z,44.73
2019-05-25T11:03:16.937Z,45.64
2019-05-25T11:05:50.151Z,44.24
2019-05-25T11:08:27.035Z,43.61
2019-05-25T11:11:00.272Z,43.41
2019-05-25T11:13:33.547Z,44.16
2019-05-25T11:16:06.829Z,42.95
2019-05-25T11:18:40.205Z,42.66
2019-05-25T11:21:13.648Z,44.52
2019-05-25T11:23:46.923Z,44.06
2019-05-25T11:26:20.085Z,44.52
2019-05-25T11:28:53.425Z,43.55
2019-05-25T11:31:26.644Z,42.96
2019-05-25T11:33:59.835Z,43.00
2019-05-25T11:36:33.197Z,42.63
2019-05-25T11:39:08.829Z,44.77
2019-05-25T11:41:42.057Z,44.21
2019-05-25T11:44:15.361Z,43.99
2019-05-25T11:46:48.580Z,44.18
2019-05-25T11:49:23.074Z,44.13
2019-05-25T11:51:56.484Z,44.17
2019-05-25T11:54:29.736Z,43.87
2019-05-25T11:57:03.071Z,46.23
2019-05-25T11:59:36.521Z,44.93
2019-05-25T12:02:09.858Z,44.29
2019-05-25T12:04:43.224Z,44.39
2019-05-25T12:07:16.638Z,43.79
2019-05-25T12:09:50.106Z,44.34
2019-05-25T12:12:23.585Z,44.03
2019-05-25T12:14:56.981Z,45.62
2019-05-25T12:17:30.385Z,46.23
2019-05-25T12:20:03.808Z,45.13
2019-05-25T12:22:37.175Z,44.95
2019-05-25T12:25:11.537Z,45.26
2019-05-25T12:27:48.855Z,45.47
2019-05-25T12:30:22.282Z,45.18
2019-05-25T12:32:56.467Z,45.22
2019-05-25T12:35:31.758Z,45.50
2019-05-25T12:38:05.361Z,44.60
2019-05-25T12:40:52.739Z,45.36
2019-05-25T12:43:13.983Z,45.45
2019-05-25T12:45:47.865Z,45.58
2019-05-25T12:48:21.340Z,46.25
2019-05-25T13:06:02.711Z,44.43
2019-05-25T13:08:36.561Z,44.21
2019-05-25T13:11:10.319Z,44.48
2019-05-25T13:13:45.370Z,45.33
2019-05-25T13:16:18.888Z,44.86
2019-05-25T13:18:52.358Z,44.54
2019-05-25T13:21:25.978Z,44.84
2019-05-25T13:23:59.660Z,46.08
2019-05-25T13:26:34.199Z,45.69
2019-05-25T13:29:08.509Z,45.46
2019-05-25T13:31:43.690Z,44.30
2019-05-25T13:34:18.243Z,43.95
2019-05-25T13:36:53.338Z,44.07
2019-05-25T13:39:27.818Z,43.87
2019-05-25T13:42:02.405Z,44.36
2019-05-25T13:44:35.891Z,43.98
2019-05-25T13:47:09.323Z,44.08
2019-05-25T13:49:42.959Z,44.17
2019-05-25T13:52:16.389Z,44.56
2019-05-25T13:54:49.951Z,44.96
2019-05-25T13:57:23.407Z,44.97
2019-05-25T13:59:56.814Z,45.02
2019-05-25T14:02:30.734Z,44.93
2019-05-25T14:05:04.262Z,44.64
2019-05-25T14:07:37.732Z,44.23
2019-05-25T14:10:11.587Z,44.81
2019-05-25T14:12:45.062Z,45.41
2019-05-25T14:15:18.904Z,44.82
2019-05-25T14:17:52.352Z,44.80
2019-05-25T14:20:26.024Z,45.15
2019-05-25T14:23:00.298Z,45.38
2019-05-25T14:25:34.613Z,45.02
2019-05-25T14:28:10.202Z,44.71
2019-05-25T14:30:43.831Z,44.55
2019-05-25T14:33:17.259Z,45.86
2019-05-25T14:35:50.905Z,45.10
2019-05-25T14:38:33.987Z,44.50
2019-05-25T14:41:08.611Z,45.28
2019-05-25T14:43:42.412Z,44.82
2019-05-25T14:46:27.307Z,44.78
2019-05-25T14:48:51.562Z,44.34
2019-05-25T14:51:25.276Z,44.19
2019-05-25T14:54:02.374Z,44.87
2019-05-25T14:56:35.990Z,43.83
2019-05-25T14:59:09.769Z,44.88
2019-05-25T15:01:43.661Z,45.00
2019-05-25T15:04:17.535Z,45.97
2019-05-25T15:06:49.556Z,45.63
2019-05-25T15:09:22.864Z,45.95
2019-05-25T15:11:56.326Z,46.70
2019-05-25T15:14:29.780Z,46.80
2019-05-25T15:17:03.297Z,45.79
2019-05-25T15:19:36.756Z,45.41
2019-05-25T15:22:10.898Z,45.61
2019-05-25T15:24:44.600Z,46.69
2019-05-25T15:27:19.021Z,46.43
2019-05-25T15:29:52.493Z,46.32
2019-05-25T15:32:25.867Z,46.09
2019-05-25T15:34:59.370Z,46.42
2019-05-25T15:37:32.795Z,46.65
2019-05-25T15:40:07.068Z,46.28
2019-05-25T15:42:40.500Z,46.58
2019-05-25T15:45:14.442Z,46.51
2019-05-25T15:47:47.916Z,46.83
2019-05-25T15:50:21.862Z,46.59
2019-05-25T15:52:56.656Z,47.39
2019-05-25T15:55:30.537Z,47.89
2019-05-25T15:58:03.953Z,47.92
2019-05-25T16:00:49.923Z,47.61
2019-05-25T16:03:25.219Z,47.46
2019-05-25T16:05:58.662Z,47.47
2019-05-25T16:08:32.081Z,47.89
2019-05-25T16:11:05.564Z,48.07
2019-05-25T16:13:39.089Z,48.47
2019-05-25T16:16:12.666Z,48.74
2019-05-25T16:18:46.149Z,48.61
2019-05-25T16:21:19.663Z,49.28
2019-05-25T16:23:53.107Z,49.30
2019-05-25T16:26:26.578Z,49.88
2019-05-25T16:28:59.939Z,49.63
2019-05-25T16:31:33.400Z,50.65
2019-05-25T16:34:08.014Z,50.75
2019-05-25T16:36:41.523Z,50.68
2019-05-25T16:39:14.965Z,50.36
2019-05-25T16:41:48.420Z,50.77
2019-05-25T16:44:21.843Z,51.09
2019-05-25T16:46:55.649Z,50.44
2019-05-25T16:49:29.074Z,50.97
2019-05-25T16:52:02.524Z,51.01
2019-05-25T16:54:35.970Z,51.04
2019-05-25T16:57:09.395Z,51.28
2019-05-25T16:59:42.828Z,51.40
2019-05-25T17:02:16.331Z,51.42
2019-05-25T17:04:49.855Z,51.17
2019-05-25T17:07:24.271Z,51.43
2019-05-25T17:09:57.761Z,51.26
2019-05-25T17:12:31.312Z,51.09
2019-05-25T17:15:05.083Z,51.03
2019-05-25T17:17:38.576Z,51.00
2019-05-25T17:20:12.251Z,50.70
2019-05-25T17:22:45.791Z,50.32
2019-05-25T17:25:19.601Z,50.00
2019-05-25T17:27:53.127Z,49.63
2019-05-25T17:30:44.931Z,49.41
2019-05-25T17:33:18.432Z,49.63
2019-05-25T17:35:51.915Z,49.72
2019-05-25T17:38:25.424Z,49.84
2019-05-25T17:40:59.011Z,49.92
2019-05-25T17:43:32.487Z,49.99
2019-05-25T17:46:06.030Z,50.20
2019-05-25T17:48:39.411Z,49.94
2019-05-25T17:51:12.906Z,49.94
2019-05-25T17:53:46.337Z,51.63
2019-05-25T17:56:19.847Z,52.87
2019-05-25T17:58:53.334Z,50.88
2019-05-25T18:01:26.789Z,51.17
2019-05-25T18:04:07.099Z,51.32
2019-05-25T18:06:35.828Z,51.37
2019-05-25T18:09:10.178Z,51.70
2019-05-25T18:11:43.656Z,51.51
2019-05-25T18:14:17.123Z,51.60
2019-05-25T18:16:50.555Z,51.74
2019-05-25T18:19:23.948Z,51.55
2019-05-25T18:21:59.094Z,51.93
2019-05-25T18:24:32.678Z,51.56
2019-05-25T18:27:06.292Z,51.50
2019-05-25T18:29:39.715Z,51.73
2019-05-25T18:32:13.127Z,51.61
2019-05-25T18:34:46.600Z,51.76
2019-05-25T18:37:20.216Z,52.15
2019-05-25T18:39:53.634Z,52.07
2019-05-25T18:42:30.200Z,52.43
2019-05-25T18:45:02.131Z,52.43
2019-05-25T18:47:36.090Z,52.58
2019-05-25T18:50:10.283Z,52.84
2019-05-25T18:52:44.666Z,53.00
2019-05-25T18:55:19.449Z,53.22
2019-05-25T18:57:52.906Z,52.79
2019-05-25T19:00:26.594Z,52.95
2019-05-25T19:03:21.798Z,52.99
2019-05-25T19:05:55.978Z,53.14
2019-05-25T19:08:29.629Z,52.90
2019-05-25T19:11:03.092Z,53.21
2019-05-25T19:13:36.557Z,53.46
2019-05-25T19:16:10.049Z,53.45
2019-05-25T19:18:43.592Z,53.66
2019-05-25T19:21:18.071Z,53.67
2019-05-25T19:23:51.478Z,53.53
2019-05-25T19:26:24.933Z,53.78
2019-05-25T19:28:58.381Z,54.07
2019-05-25T19:31:31.844Z,54.29
2019-05-25T19:34:05.279Z,54.35
2019-05-25T19:36:38.678Z,54.42
2019-05-25T19:39:12.202Z,54.48
2019-05-25T19:41:45.715Z,54.72
2019-05-25T19:44:19.317Z,54.94
2019-05-25T19:46:52.804Z,55.32
2019-05-25T19:49:26.311Z,55.46
2019-05-25T19:52:00.212Z,55.73
2019-05-25T19:54:33.628Z,55.80
2019-05-25T19:57:07.235Z,55.92
2019-05-25T19:59:40.659Z,55.84
2019-05-25T20:02:14.099Z,56.04
2019-05-25T20:04:47.422Z,55.97
2019-05-25T20:07:20.890Z,56.07
2019-05-25T20:09:54.275Z,56.48
2019-05-25T20:12:27.689Z,56.72
2019-05-25T20:15:01.121Z,57.02
2019-05-25T20:17:34.838Z,57.51
2019-05-25T20:20:08.837Z,57.89
2019-05-25T20:22:42.296Z,58.27
2019-05-25T20:25:15.947Z,58.55
2019-05-25T20:27:49.721Z,58.75
2019-05-25T20:30:23.352Z,58.95
2019-05-25T20:32:56.895Z,59.26
2019-05-25T20:35:33.413Z,59.32
2019-05-25T20:38:05.417Z,59.56
2019-05-25T20:40:38.986Z,59.97
2019-05-25T20:43:12.538Z,60.55
2019-05-25T20:45:46.293Z,60.67
2019-05-25T20:48:19.939Z,60.83
2019-05-25T20:50:53.553Z,60.90
2019-05-25T20:53:27.191Z,61.19
2019-05-25T20:56:00.879Z,61.39
2019-05-25T20:58:34.326Z,61.59
2019-05-25T21:01:07.978Z,61.70
2019-05-25T21:03:41.853Z,61.83
2019-05-25T21:06:15.541Z,61.90
2019-05-25T21:08:49.194Z,62.16
2019-05-25T21:11:22.791Z,62.28
2019-05-25T21:13:56.486Z,62.36
2019-05-25T21:16:30.542Z,60.63
2019-05-25T21:19:04.262Z,52.89
2019-05-25T21:21:38.032Z,53.40
2019-05-25T21:24:12.667Z,54.49
2019-05-25T21:26:46.389Z,55.45
2019-05-25T21:29:20.351Z,56.30
2019-05-25T21:31:54.077Z,56.95
2019-05-25T21:34:27.814Z,57.60
2019-05-25T21:37:01.488Z,58.14
2019-05-25T21:39:35.222Z,58.64
2019-05-25T21:42:09.017Z,59.10
2019-05-25T21:44:42.699Z,59.48
2019-05-25T21:47:16.653Z,59.78
2019-05-25T21:49:51.419Z,60.04
2019-05-25T21:52:25.091Z,60.39
2019-05-25T21:54:58.753Z,60.53
2019-05-25T21:57:32.457Z,60.86
2019-05-25T22:00:07.722Z,61.12
2019-05-25T22:02:42.826Z,61.63
2019-05-25T22:05:16.919Z,61.97
2019-05-25T22:07:50.611Z,62.17
2019-05-25T22:10:25.844Z,62.48
2019-05-25T22:12:59.450Z,60.45
2019-05-25T22:15:33.360Z,53.26
2019-05-25T22:18:07.475Z,54.18
2019-05-25T22:20:41.057Z,55.59
2019-05-25T22:23:14.726Z,56.98
2019-05-25T22:25:48.328Z,58.02
2019-05-25T22:28:59.652Z,58.83
2019-05-25T22:31:24.978Z,59.52
2019-05-25T22:33:59.472Z,60.12
2019-05-25T22:36:40.373Z,60.82
2019-05-25T22:39:09.429Z,61.37
2019-05-25T22:41:43.115Z,61.85
2019-05-25T22:44:16.728Z,61.90
2019-05-25T22:46:50.682Z,62.20
2019-05-25T22:49:24.505Z,62.20
2019-05-25T22:51:58.354Z,62.40
2019-05-25T22:54:32.002Z,60.48
2019-05-25T22:57:06.583Z,53.16
2019-05-25T22:59:40.832Z,54.09
2019-05-25T23:02:14.483Z,55.80
2019-05-25T23:04:48.218Z,56.87
2019-05-25T23:07:21.906Z,57.75
2019-05-25T23:09:55.759Z,58.72
2019-05-25T23:12:29.600Z,59.53
2019-05-25T23:15:03.252Z,60.25
2019-05-25T23:17:38.083Z,60.83
2019-05-25T23:20:11.946Z,61.29
2019-05-25T23:22:45.692Z,61.77
2019-05-25T23:25:19.445Z,62.31
2019-05-25T23:27:53.275Z,60.74
2019-05-25T23:30:28.147Z,50.60
2019-05-25T23:33:01.886Z,47.48
2019-05-25T23:35:35.567Z,49.85
2019-05-25T23:38:09.374Z,52.11
2019-05-25T23:40:43.186Z,53.49
2019-05-25T23:43:17.243Z,54.64
2019-05-25T23:45:50.893Z,55.75
2019-05-25T23:48:24.756Z,56.65
2019-05-25T23:50:58.454Z,57.52
2019-05-25T23:53:32.299Z,58.24
2019-05-25T23:56:06.026Z,58.99
2019-05-25T23:58:39.788Z,59.67
